sensor_id;sensor_type;location;lat;lon;timestamp;temperature;humidity
73322;DHT22;61549;37.044;22.128;2023-02-02T00:00:45;11.40;38.20
73322;DHT22;61549;37.044;22.128;2023-02-02T00:03:11;11.40;38.20
73322;DHT22;61549;37.044;22.128;2023-02-02T00:05:37;11.40;38.10
73322;DHT22;61549;37.044;22.128;2023-02-02T00:08:03;11.40;38.00
73322;DHT22;61549;37.044;22.128;2023-02-02T00:10:29;11.40;38.00
73322;DHT22;61549;37.044;22.128;2023-02-02T00:12:55;11.40;38.10
73322;DHT22;61549;37.044;22.128;2023-02-02T00:15:23;11.40;38.10
73322;DHT22;61549;37.044;22.128;2023-02-02T00:17:49;11.30;38.20
73322;DHT22;61549;37.044;22.128;2023-02-02T00:20:15;11.30;37.70
73322;DHT22;61549;37.044;22.128;2023-02-02T00:22:41;11.30;37.80
73322;DHT22;61549;37.044;22.128;2023-02-02T00:25:07;11.20;38.40
73322;DHT22;61549;37.044;22.128;2023-02-02T00:27:33;11.40;38.00
73322;DHT22;61549;37.044;22.128;2023-02-02T00:29:59;11.40;38.20
73322;DHT22;61549;37.044;22.128;2023-02-02T00:32:24;11.40;38.50
73322;DHT22;61549;37.044;22.128;2023-02-02T00:34:50;11.50;38.60
73322;DHT22;61549;37.044;22.128;2023-02-02T00:37:16;11.50;38.50
73322;DHT22;61549;37.044;22.128;2023-02-02T00:39:42;11.50;40.00
73322;DHT22;61549;37.044;22.128;2023-02-02T00:42:12;11.50;40.20
73322;DHT22;61549;37.044;22.128;2023-02-02T00:44:38;11.50;41.20
73322;DHT22;61549;37.044;22.128;2023-02-02T00:47:22;11.40;40.70
73322;DHT22;61549;37.044;22.128;2023-02-02T00:49:48;11.20;39.60
73322;DHT22;61549;37.044;22.128;2023-02-02T00:52:14;11.20;39.30
73322;DHT22;61549;37.044;22.128;2023-02-02T00:54:40;11.10;39.40
73322;DHT22;61549;37.044;22.128;2023-02-02T00:57:06;11.00;39.20
73322;DHT22;61549;37.044;22.128;2023-02-02T00:59:33;10.90;38.80
73322;DHT22;61549;37.044;22.128;2023-02-02T01:01:59;11.00;39.20
73322;DHT22;61549;37.044;22.128;2023-02-02T01:04:26;11.00;39.60
73322;DHT22;61549;37.044;22.128;2023-02-02T01:06:52;11.00;39.50
73322;DHT22;61549;37.044;22.128;2023-02-02T01:09:18;11.00;39.30
73322;DHT22;61549;37.044;22.128;2023-02-02T01:11:43;11.00;39.10
73322;DHT22;61549;37.044;22.128;2023-02-02T01:14:09;11.10;40.70
73322;DHT22;61549;37.044;22.128;2023-02-02T01:16:35;11.00;41.10
73322;DHT22;61549;37.044;22.128;2023-02-02T01:19:01;11.00;40.60
73322;DHT22;61549;37.044;22.128;2023-02-02T01:21:27;11.00;40.20
73322;DHT22;61549;37.044;22.128;2023-02-02T01:23:53;10.90;40.20
73322;DHT22;61549;37.044;22.128;2023-02-02T01:26:18;10.90;39.70
73322;DHT22;61549;37.044;22.128;2023-02-02T01:28:45;10.90;39.90
73322;DHT22;61549;37.044;22.128;2023-02-02T01:31:15;10.80;40.20
73322;DHT22;61549;37.044;22.128;2023-02-02T01:33:42;10.80;40.10
73322;DHT22;61549;37.044;22.128;2023-02-02T01:36:18;10.80;40.50
73322;DHT22;61549;37.044;22.128;2023-02-02T01:38:48;10.70;40.50
73322;DHT22;61549;37.044;22.128;2023-02-02T01:41:20;10.60;40.40
73322;DHT22;61549;37.044;22.128;2023-02-02T01:49:15;10.50;39.20
73322;DHT22;61549;37.044;22.128;2023-02-02T01:51:51;10.60;38.80
73322;DHT22;61549;37.044;22.128;2023-02-02T01:54:25;10.70;39.00
73322;DHT22;61549;37.044;22.128;2023-02-02T01:57:02;10.70;39.00
73322;DHT22;61549;37.044;22.128;2023-02-02T01:59:29;10.70;38.90
73322;DHT22;61549;37.044;22.128;2023-02-02T02:01:56;10.70;38.60
73322;DHT22;61549;37.044;22.128;2023-02-02T02:04:23;10.80;38.20
73322;DHT22;61549;37.044;22.128;2023-02-02T02:06:50;10.80;38.10
73322;DHT22;61549;37.044;22.128;2023-02-02T02:09:18;10.90;38.40
73322;DHT22;61549;37.044;22.128;2023-02-02T02:11:44;10.90;39.10
73322;DHT22;61549;37.044;22.128;2023-02-02T02:14:14;11.00;39.00
73322;DHT22;61549;37.044;22.128;2023-02-02T02:29:30;10.90;40.20
73322;DHT22;61549;37.044;22.128;2023-02-02T02:34:51;10.80;41.80
73322;DHT22;61549;37.044;22.128;2023-02-02T02:40:24;10.70;41.00
73322;DHT22;61549;37.044;22.128;2023-02-02T02:42:55;10.60;41.20
73322;DHT22;61549;37.044;22.128;2023-02-02T02:45:23;10.50;40.80
73322;DHT22;61549;37.044;22.128;2023-02-02T02:47:50;10.50;40.50
73322;DHT22;61549;37.044;22.128;2023-02-02T02:50:32;10.50;40.90
73322;DHT22;61549;37.044;22.128;2023-02-02T02:53:10;10.50;41.10
73322;DHT22;61549;37.044;22.128;2023-02-02T02:58:50;10.20;40.40
73322;DHT22;61549;37.044;22.128;2023-02-02T03:07:28;10.30;41.30
73322;DHT22;61549;37.044;22.128;2023-02-02T03:09:52;10.30;42.30
73322;DHT22;61549;37.044;22.128;2023-02-02T03:12:25;10.20;42.30
73322;DHT22;61549;37.044;22.128;2023-02-02T03:14:51;10.30;42.70
73322;DHT22;61549;37.044;22.128;2023-02-02T03:17:17;10.30;42.70
73322;DHT22;61549;37.044;22.128;2023-02-02T03:19:42;10.20;42.70
73322;DHT22;61549;37.044;22.128;2023-02-02T03:22:08;10.10;42.60
73322;DHT22;61549;37.044;22.128;2023-02-02T03:24:34;10.10;42.20
73322;DHT22;61549;37.044;22.128;2023-02-02T03:27:00;10.00;42.20
73322;DHT22;61549;37.044;22.128;2023-02-02T03:29:27;10.00;42.20
73322;DHT22;61549;37.044;22.128;2023-02-02T03:31:52;10.00;42.00
73322;DHT22;61549;37.044;22.128;2023-02-02T03:34:22;9.90;41.80
73322;DHT22;61549;37.044;22.128;2023-02-02T03:36:48;10.00;42.80
73322;DHT22;61549;37.044;22.128;2023-02-02T03:39:14;10.10;43.30
73322;DHT22;61549;37.044;22.128;2023-02-02T03:41:41;9.90;41.80
73322;DHT22;61549;37.044;22.128;2023-02-02T03:44:07;9.90;41.70
73322;DHT22;61549;37.044;22.128;2023-02-02T03:46:32;9.90;41.10
73322;DHT22;61549;37.044;22.128;2023-02-02T03:48:59;9.90;41.40
73322;DHT22;61549;37.044;22.128;2023-02-02T03:51:25;9.90;41.10
73322;DHT22;61549;37.044;22.128;2023-02-02T03:53:51;10.00;40.90
73322;DHT22;61549;37.044;22.128;2023-02-02T03:56:17;10.00;41.10
73322;DHT22;61549;37.044;22.128;2023-02-02T03:58:44;10.10;41.00
73322;DHT22;61549;37.044;22.128;2023-02-02T04:01:14;10.10;40.70
73322;DHT22;61549;37.044;22.128;2023-02-02T04:03:40;10.20;40.60
73322;DHT22;61549;37.044;22.128;2023-02-02T04:06:06;10.20;40.00
73322;DHT22;61549;37.044;22.128;2023-02-02T04:08:32;10.20;39.70
73322;DHT22;61549;37.044;22.128;2023-02-02T04:10:59;10.30;39.80
73322;DHT22;61549;37.044;22.128;2023-02-02T04:13:25;10.30;40.10
73322;DHT22;61549;37.044;22.128;2023-02-02T04:16:00;10.30;40.10
73322;DHT22;61549;37.044;22.128;2023-02-02T04:18:27;10.30;39.60
73322;DHT22;61549;37.044;22.128;2023-02-02T04:21:00;10.30;39.70
73322;DHT22;61549;37.044;22.128;2023-02-02T04:23:27;10.40;39.30
73322;DHT22;61549;37.044;22.128;2023-02-02T04:25:54;10.40;39.30
73322;DHT22;61549;37.044;22.128;2023-02-02T04:28:20;10.50;39.80
73322;DHT22;61549;37.044;22.128;2023-02-02T04:30:47;10.60;40.40
73322;DHT22;61549;37.044;22.128;2023-02-02T04:33:12;10.50;40.40
73322;DHT22;61549;37.044;22.128;2023-02-02T04:35:38;10.50;40.30
73322;DHT22;61549;37.044;22.128;2023-02-02T04:38:04;10.40;40.20
73322;DHT22;61549;37.044;22.128;2023-02-02T04:40:30;10.40;40.10
73322;DHT22;61549;37.044;22.128;2023-02-02T04:42:56;10.40;40.30
73322;DHT22;61549;37.044;22.128;2023-02-02T04:45:22;10.40;40.30
73322;DHT22;61549;37.044;22.128;2023-02-02T04:47:49;10.30;40.00
73322;DHT22;61549;37.044;22.128;2023-02-02T04:50:15;10.40;42.20
73322;DHT22;61549;37.044;22.128;2023-02-02T04:52:41;10.40;40.70
73322;DHT22;61549;37.044;22.128;2023-02-02T04:55:07;10.40;40.30
73322;DHT22;61549;37.044;22.128;2023-02-02T04:57:33;10.40;41.40
73322;DHT22;61549;37.044;22.128;2023-02-02T04:59:59;10.50;42.20
73322;DHT22;61549;37.044;22.128;2023-02-02T05:02:25;10.40;42.10
73322;DHT22;61549;37.044;22.128;2023-02-02T05:04:51;10.20;40.40
73322;DHT22;61549;37.044;22.128;2023-02-02T05:07:16;10.20;40.60
73322;DHT22;61549;37.044;22.128;2023-02-02T05:09:42;10.30;41.40
73322;DHT22;61549;37.044;22.128;2023-02-02T05:12:08;10.20;42.40
73322;DHT22;61549;37.044;22.128;2023-02-02T05:14:34;10.20;43.20
73322;DHT22;61549;37.044;22.128;2023-02-02T05:17:00;10.20;43.10
73322;DHT22;61549;37.044;22.128;2023-02-02T05:19:26;10.20;42.60
73322;DHT22;61549;37.044;22.128;2023-02-02T05:21:52;10.10;42.20
73322;DHT22;61549;37.044;22.128;2023-02-02T05:24:19;10.10;42.30
73322;DHT22;61549;37.044;22.128;2023-02-02T05:26:45;10.10;42.40
73322;DHT22;61549;37.044;22.128;2023-02-02T05:29:10;10.00;42.10
73322;DHT22;61549;37.044;22.128;2023-02-02T05:31:36;10.00;42.60
73322;DHT22;61549;37.044;22.128;2023-02-02T05:34:04;10.00;42.60
73322;DHT22;61549;37.044;22.128;2023-02-02T05:36:31;10.00;42.20
73322;DHT22;61549;37.044;22.128;2023-02-02T05:38:57;10.00;42.50
73322;DHT22;61549;37.044;22.128;2023-02-02T05:41:23;10.00;42.70
73322;DHT22;61549;37.044;22.128;2023-02-02T05:43:49;10.00;43.00
73322;DHT22;61549;37.044;22.128;2023-02-02T05:46:16;9.80;42.60
73322;DHT22;61549;37.044;22.128;2023-02-02T05:48:41;9.60;42.80
73322;DHT22;61549;37.044;22.128;2023-02-02T05:51:17;9.40;43.10
73322;DHT22;61549;37.044;22.128;2023-02-02T05:53:44;9.40;43.40
73322;DHT22;61549;37.044;22.128;2023-02-02T05:56:10;9.50;43.80
73322;DHT22;61549;37.044;22.128;2023-02-02T05:58:36;9.60;43.40
73322;DHT22;61549;37.044;22.128;2023-02-02T06:01:02;9.70;43.60
73322;DHT22;61549;37.044;22.128;2023-02-02T06:03:29;9.60;43.70
73322;DHT22;61549;37.044;22.128;2023-02-02T06:05:55;9.70;43.50
73322;DHT22;61549;37.044;22.128;2023-02-02T06:08:21;9.80;44.40
73322;DHT22;61549;37.044;22.128;2023-02-02T06:10:47;9.80;44.20
73322;DHT22;61549;37.044;22.128;2023-02-02T06:13:16;9.70;43.50
73322;DHT22;61549;37.044;22.128;2023-02-02T06:15:42;9.70;43.30
73322;DHT22;61549;37.044;22.128;2023-02-02T06:18:08;9.80;44.10
73322;DHT22;61549;37.044;22.128;2023-02-02T06:20:34;9.70;43.70
73322;DHT22;61549;37.044;22.128;2023-02-02T06:23:01;9.70;43.00
73322;DHT22;61549;37.044;22.128;2023-02-02T06:25:27;9.80;42.90
73322;DHT22;61549;37.044;22.128;2023-02-02T06:27:57;9.80;43.80
73322;DHT22;61549;37.044;22.128;2023-02-02T06:30:24;10.00;44.40
73322;DHT22;61549;37.044;22.128;2023-02-02T06:32:50;10.00;44.80
73322;DHT22;61549;37.044;22.128;2023-02-02T06:35:16;9.90;44.20
73322;DHT22;61549;37.044;22.128;2023-02-02T06:37:42;9.90;44.80
73322;DHT22;61549;37.044;22.128;2023-02-02T06:40:16;9.90;44.90
73322;DHT22;61549;37.044;22.128;2023-02-02T06:42:42;9.90;44.60
73322;DHT22;61549;37.044;22.128;2023-02-02T06:45:09;9.90;44.90
73322;DHT22;61549;37.044;22.128;2023-02-02T06:47:35;10.00;45.10
73322;DHT22;61549;37.044;22.128;2023-02-02T06:50:02;10.40;46.10
73322;DHT22;61549;37.044;22.128;2023-02-02T06:52:28;10.80;46.90
73322;DHT22;61549;37.044;22.128;2023-02-02T06:54:54;11.10;46.80
73322;DHT22;61549;37.044;22.128;2023-02-02T06:57:19;11.40;47.00
73322;DHT22;61549;37.044;22.128;2023-02-02T06:59:45;11.70;46.10
73322;DHT22;61549;37.044;22.128;2023-02-02T07:02:12;11.90;43.50
73322;DHT22;61549;37.044;22.128;2023-02-02T07:04:38;12.10;43.20
73322;DHT22;61549;37.044;22.128;2023-02-02T07:07:04;12.50;42.10
73322;DHT22;61549;37.044;22.128;2023-02-02T07:09:34;12.80;41.30
73322;DHT22;61549;37.044;22.128;2023-02-02T07:12:00;13.10;41.90
73322;DHT22;61549;37.044;22.128;2023-02-02T07:14:26;13.30;41.00
73322;DHT22;61549;37.044;22.128;2023-02-02T07:16:52;13.60;41.50
73322;DHT22;61549;37.044;22.128;2023-02-02T07:19:18;13.80;39.50
73322;DHT22;61549;37.044;22.128;2023-02-02T07:21:44;14.00;39.20
73322;DHT22;61549;37.044;22.128;2023-02-02T07:24:10;14.30;37.30
73322;DHT22;61549;37.044;22.128;2023-02-02T07:26:36;14.50;36.80
73322;DHT22;61549;37.044;22.128;2023-02-02T07:29:02;14.70;36.30
73322;DHT22;61549;37.044;22.128;2023-02-02T07:31:29;14.80;37.50
73322;DHT22;61549;37.044;22.128;2023-02-02T07:34:14;15.00;37.80
73322;DHT22;61549;37.044;22.128;2023-02-02T07:36:40;15.20;38.70
73322;DHT22;61549;37.044;22.128;2023-02-02T07:39:06;15.30;39.30
73322;DHT22;61549;37.044;22.128;2023-02-02T07:41:34;15.40;39.60
73322;DHT22;61549;37.044;22.128;2023-02-02T07:44:02;15.50;40.10
73322;DHT22;61549;37.044;22.128;2023-02-02T07:46:28;15.60;40.50
73322;DHT22;61549;37.044;22.128;2023-02-02T07:48:54;15.80;40.30
73322;DHT22;61549;37.044;22.128;2023-02-02T07:51:22;16.00;40.30
73322;DHT22;61549;37.044;22.128;2023-02-02T07:53:50;16.00;39.80
73322;DHT22;61549;37.044;22.128;2023-02-02T07:56:20;16.00;40.10
73322;DHT22;61549;37.044;22.128;2023-02-02T07:58:46;16.10;39.90
73322;DHT22;61549;37.044;22.128;2023-02-02T08:01:14;16.10;41.20
73322;DHT22;61549;37.044;22.128;2023-02-02T08:03:41;16.30;40.60
73322;DHT22;61549;37.044;22.128;2023-02-02T08:06:22;16.30;41.10
73322;DHT22;61549;37.044;22.128;2023-02-02T08:08:49;16.60;40.10
73322;DHT22;61549;37.044;22.128;2023-02-02T08:11:18;16.70;39.50
73322;DHT22;61549;37.044;22.128;2023-02-02T08:13:49;16.80;37.90
73322;DHT22;61549;37.044;22.128;2023-02-02T08:16:15;17.00;38.20
73322;DHT22;61549;37.044;22.128;2023-02-02T08:18:41;17.00;37.50
73322;DHT22;61549;37.044;22.128;2023-02-02T08:21:08;17.20;37.70
73322;DHT22;61549;37.044;22.128;2023-02-02T08:23:36;17.20;37.50
73322;DHT22;61549;37.044;22.128;2023-02-02T08:26:14;17.20;38.40
73322;DHT22;61549;37.044;22.128;2023-02-02T08:28:42;17.30;35.80
73322;DHT22;61549;37.044;22.128;2023-02-02T08:31:37;17.40;35.80
73322;DHT22;61549;37.044;22.128;2023-02-02T08:34:03;17.60;36.30
73322;DHT22;61549;37.044;22.128;2023-02-02T08:39:53;17.80;36.30
73322;DHT22;61549;37.044;22.128;2023-02-02T08:42:18;17.90;35.70
73322;DHT22;61549;37.044;22.128;2023-02-02T08:44:44;18.00;34.30
73322;DHT22;61549;37.044;22.128;2023-02-02T08:47:10;18.10;33.90
73322;DHT22;61549;37.044;22.128;2023-02-02T08:49:36;18.20;34.10
73322;DHT22;61549;37.044;22.128;2023-02-02T08:52:02;18.40;33.40
73322;DHT22;61549;37.044;22.128;2023-02-02T08:54:28;18.50;33.90
73322;DHT22;61549;37.044;22.128;2023-02-02T08:56:54;18.60;34.70
73322;DHT22;61549;37.044;22.128;2023-02-02T08:59:20;18.70;34.30
73322;DHT22;61549;37.044;22.128;2023-02-02T09:01:47;18.80;33.80
73322;DHT22;61549;37.044;22.128;2023-02-02T09:04:14;18.80;33.50
73322;DHT22;61549;37.044;22.128;2023-02-02T09:06:42;18.70;33.90
73322;DHT22;61549;37.044;22.128;2023-02-02T09:09:12;18.80;34.10
73322;DHT22;61549;37.044;22.128;2023-02-02T09:11:38;18.90;34.50
73322;DHT22;61549;37.044;22.128;2023-02-02T09:14:04;19.00;34.40
73322;DHT22;61549;37.044;22.128;2023-02-02T09:16:31;19.00;34.60
73322;DHT22;61549;37.044;22.128;2023-02-02T09:18:58;18.90;34.40
73322;DHT22;61549;37.044;22.128;2023-02-02T09:21:24;18.80;34.10
73322;DHT22;61549;37.044;22.128;2023-02-02T09:23:51;18.60;35.20
73322;DHT22;61549;37.044;22.128;2023-02-02T09:26:23;18.30;35.90
73322;DHT22;61549;37.044;22.128;2023-02-02T09:28:54;17.90;38.00
73322;DHT22;61549;37.044;22.128;2023-02-02T09:31:21;17.60;38.50
73322;DHT22;61549;37.044;22.128;2023-02-02T09:33:47;17.60;39.50
73322;DHT22;61549;37.044;22.128;2023-02-02T09:36:15;17.60;39.20
73322;DHT22;61549;37.044;22.128;2023-02-02T09:38:42;17.40;38.50
73322;DHT22;61549;37.044;22.128;2023-02-02T09:46:58;17.30;38.90
73322;DHT22;61549;37.044;22.128;2023-02-02T09:49:34;17.20;38.30
73322;DHT22;61549;37.044;22.128;2023-02-02T09:52:14;17.20;38.50
73322;DHT22;61549;37.044;22.128;2023-02-02T09:54:43;17.20;38.90
73322;DHT22;61549;37.044;22.128;2023-02-02T09:57:20;17.30;38.80
73322;DHT22;61549;37.044;22.128;2023-02-02T09:59:49;17.30;37.70
73322;DHT22;61549;37.044;22.128;2023-02-02T10:02:25;17.40;37.60
73322;DHT22;61549;37.044;22.128;2023-02-02T10:05:04;17.40;37.50
73322;DHT22;61549;37.044;22.128;2023-02-02T10:07:40;17.50;38.20
73322;DHT22;61549;37.044;22.128;2023-02-02T10:10:17;17.40;40.70
73322;DHT22;61549;37.044;22.128;2023-02-02T10:15:55;17.10;42.60
73322;DHT22;61549;37.044;22.128;2023-02-02T10:18:46;17.00;42.40
73322;DHT22;61549;37.044;22.128;2023-02-02T10:24:18;17.20;42.20
73322;DHT22;61549;37.044;22.128;2023-02-02T10:26:50;17.20;42.70
73322;DHT22;61549;37.044;22.128;2023-02-02T10:29:24;17.20;42.80
73322;DHT22;61549;37.044;22.128;2023-02-02T10:40:02;17.20;42.40
73322;DHT22;61549;37.044;22.128;2023-02-02T10:45:34;17.20;42.00
73322;DHT22;61549;37.044;22.128;2023-02-02T10:48:01;17.10;42.50
73322;DHT22;61549;37.044;22.128;2023-02-02T10:50:28;17.00;42.90
73322;DHT22;61549;37.044;22.128;2023-02-02T10:52:59;17.00;42.90
73322;DHT22;61549;37.044;22.128;2023-02-02T11:00:32;17.00;42.40
73322;DHT22;61549;37.044;22.128;2023-02-02T11:03:00;17.20;42.70
73322;DHT22;61549;37.044;22.128;2023-02-02T11:05:32;17.30;41.40
73322;DHT22;61549;37.044;22.128;2023-02-02T11:11:28;17.30;41.80
73322;DHT22;61549;37.044;22.128;2023-02-02T11:16:33;17.20;41.60
73322;DHT22;61549;37.044;22.128;2023-02-02T11:19:00;17.20;42.10
73322;DHT22;61549;37.044;22.128;2023-02-02T11:21:31;17.20;42.20
73322;DHT22;61549;37.044;22.128;2023-02-02T11:24:06;17.30;42.30
73322;DHT22;61549;37.044;22.128;2023-02-02T11:26:54;17.40;42.00
73322;DHT22;61549;37.044;22.128;2023-02-02T11:29:32;17.50;43.20
73322;DHT22;61549;37.044;22.128;2023-02-02T11:37:34;17.50;42.60
73322;DHT22;61549;37.044;22.128;2023-02-02T11:40:30;17.30;42.30
73322;DHT22;61549;37.044;22.128;2023-02-02T11:42:59;17.40;41.80
73322;DHT22;61549;37.044;22.128;2023-02-02T11:45:37;17.30;43.20
73322;DHT22;61549;37.044;22.128;2023-02-02T11:48:17;17.30;42.40
73322;DHT22;61549;37.044;22.128;2023-02-02T11:50:50;17.40;42.70
73322;DHT22;61549;37.044;22.128;2023-02-02T11:56:33;17.50;43.50
73322;DHT22;61549;37.044;22.128;2023-02-02T11:59:00;17.60;42.90
73322;DHT22;61549;37.044;22.128;2023-02-02T12:01:36;17.60;43.20
73322;DHT22;61549;37.044;22.128;2023-02-02T12:06:38;17.70;42.10
73322;DHT22;61549;37.044;22.128;2023-02-02T12:09:18;18.00;42.40
73322;DHT22;61549;37.044;22.128;2023-02-02T12:24:10;18.70;39.60
73322;DHT22;61549;37.044;22.128;2023-02-02T12:26:49;18.70;40.20
73322;DHT22;61549;37.044;22.128;2023-02-02T12:29:44;18.70;40.80
73322;DHT22;61549;37.044;22.128;2023-02-02T12:41:11;18.70;41.70
73322;DHT22;61549;37.044;22.128;2023-02-02T12:44:20;18.60;41.40
73322;DHT22;61549;37.044;22.128;2023-02-02T12:46:59;18.60;40.20
73322;DHT22;61549;37.044;22.128;2023-02-02T12:53:00;18.60;40.10
73322;DHT22;61549;37.044;22.128;2023-02-02T12:55:16;18.80;40.40
73322;DHT22;61549;37.044;22.128;2023-02-02T12:58:20;18.90;40.30
73322;DHT22;61549;37.044;22.128;2023-02-02T13:01:15;19.10;40.60
73322;DHT22;61549;37.044;22.128;2023-02-02T13:09:18;19.00;38.50
73322;DHT22;61549;37.044;22.128;2023-02-02T13:11:50;18.90;38.80
73322;DHT22;61549;37.044;22.128;2023-02-02T13:14:30;18.70;39.30
73322;DHT22;61549;37.044;22.128;2023-02-02T13:17:03;18.60;39.30
73322;DHT22;61549;37.044;22.128;2023-02-02T13:19:37;18.60;39.70
73322;DHT22;61549;37.044;22.128;2023-02-02T13:22:09;18.50;40.20
73322;DHT22;61549;37.044;22.128;2023-02-02T13:24:48;18.30;40.30
73322;DHT22;61549;37.044;22.128;2023-02-02T13:27:45;18.00;40.40
73322;DHT22;61549;37.044;22.128;2023-02-02T13:37:41;17.70;42.10
73322;DHT22;61549;37.044;22.128;2023-02-02T13:40:32;17.40;42.20
73322;DHT22;61549;37.044;22.128;2023-02-02T14:02:57;17.30;47.00
73322;DHT22;61549;37.044;22.128;2023-02-02T14:05:38;17.50;47.90
73322;DHT22;61549;37.044;22.128;2023-02-02T14:08:06;17.60;47.50
73322;DHT22;61549;37.044;22.128;2023-02-02T14:10:37;17.60;47.50
73322;DHT22;61549;37.044;22.128;2023-02-02T14:15:59;17.50;48.20
73322;DHT22;61549;37.044;22.128;2023-02-02T14:24:03;17.50;47.40
73322;DHT22;61549;37.044;22.128;2023-02-02T14:34:55;17.30;48.00
73322;DHT22;61549;37.044;22.128;2023-02-02T14:45:42;17.10;51.30
73322;DHT22;61549;37.044;22.128;2023-02-02T15:01:07;16.80;51.00
73322;DHT22;61549;37.044;22.128;2023-02-02T15:03:56;16.90;51.30
73322;DHT22;61549;37.044;22.128;2023-02-02T15:06:40;16.80;52.40
73322;DHT22;61549;37.044;22.128;2023-02-02T15:17:14;16.60;57.00
73322;DHT22;61549;37.044;22.128;2023-02-02T15:19:49;16.60;57.70
73322;DHT22;61549;37.044;22.128;2023-02-02T15:30:52;16.20;59.50
73322;DHT22;61549;37.044;22.128;2023-02-02T15:33:43;16.20;60.00
73322;DHT22;61549;37.044;22.128;2023-02-02T15:36:13;16.10;60.40
73322;DHT22;61549;37.044;22.128;2023-02-02T15:38:42;16.10;60.70
73322;DHT22;61549;37.044;22.128;2023-02-02T15:41:29;16.00;61.10
73322;DHT22;61549;37.044;22.128;2023-02-02T15:43:57;16.00;61.80
73322;DHT22;61549;37.044;22.128;2023-02-02T15:46:30;15.90;62.20
73322;DHT22;61549;37.044;22.128;2023-02-02T15:51:47;15.90;60.80
73322;DHT22;61549;37.044;22.128;2023-02-02T15:54:25;15.80;60.30
73322;DHT22;61549;37.044;22.128;2023-02-02T15:56:51;15.80;60.60
73322;DHT22;61549;37.044;22.128;2023-02-02T15:59:26;15.80;61.80
73322;DHT22;61549;37.044;22.128;2023-02-02T16:04:39;15.70;61.60
73322;DHT22;61549;37.044;22.128;2023-02-02T16:07:18;15.70;62.20
73322;DHT22;61549;37.044;22.128;2023-02-02T16:09:46;15.70;62.00
73322;DHT22;61549;37.044;22.128;2023-02-02T16:12:14;15.70;62.20
73322;DHT22;61549;37.044;22.128;2023-02-02T16:14:49;15.60;62.50
73322;DHT22;61549;37.044;22.128;2023-02-02T16:17:30;15.60;63.00
73322;DHT22;61549;37.044;22.128;2023-02-02T16:20:03;15.60;63.40
73322;DHT22;61549;37.044;22.128;2023-02-02T16:22:34;15.60;63.40
73322;DHT22;61549;37.044;22.128;2023-02-02T16:25:04;15.60;63.60
73322;DHT22;61549;37.044;22.128;2023-02-02T16:27:32;15.60;63.90
73322;DHT22;61549;37.044;22.128;2023-02-02T16:30:04;15.60;64.00
73322;DHT22;61549;37.044;22.128;2023-02-02T16:32:33;15.50;64.20
73322;DHT22;61549;37.044;22.128;2023-02-02T16:35:04;15.50;63.90
73322;DHT22;61549;37.044;22.128;2023-02-02T16:38:51;15.50;63.60
73322;DHT22;61549;37.044;22.128;2023-02-02T16:40:45;15.40;62.70
73322;DHT22;61549;37.044;22.128;2023-02-02T16:43:27;15.30;63.40
73322;DHT22;61549;37.044;22.128;2023-02-02T16:46:02;15.30;63.20
73322;DHT22;61549;37.044;22.128;2023-02-02T16:48:54;15.30;63.50
73322;DHT22;61549;37.044;22.128;2023-02-02T16:51:26;15.30;64.00
73322;DHT22;61549;37.044;22.128;2023-02-02T16:53:58;15.20;64.20
73322;DHT22;61549;37.044;22.128;2023-02-02T17:00:05;15.10;64.00
73322;DHT22;61549;37.044;22.128;2023-02-02T17:02:39;15.10;64.40
73322;DHT22;61549;37.044;22.128;2023-02-02T17:05:15;15.00;64.30
73322;DHT22;61549;37.044;22.128;2023-02-02T17:07:54;15.10;64.50
73322;DHT22;61549;37.044;22.128;2023-02-02T17:10:32;15.10;64.10
73322;DHT22;61549;37.044;22.128;2023-02-02T17:12:59;15.10;64.20
73322;DHT22;61549;37.044;22.128;2023-02-02T17:15:34;15.10;63.90
73322;DHT22;61549;37.044;22.128;2023-02-02T17:18:02;15.20;64.20
73322;DHT22;61549;37.044;22.128;2023-02-02T17:20:29;15.10;63.00
73322;DHT22;61549;37.044;22.128;2023-02-02T17:23:04;15.10;62.10
73322;DHT22;61549;37.044;22.128;2023-02-02T17:25:36;15.10;62.90
73322;DHT22;61549;37.044;22.128;2023-02-02T17:28:06;15.10;63.40
73322;DHT22;61549;37.044;22.128;2023-02-02T17:30:35;15.10;62.00
73322;DHT22;61549;37.044;22.128;2023-02-02T17:33:02;15.00;61.40
73322;DHT22;61549;37.044;22.128;2023-02-02T17:35:28;15.00;61.80
73322;DHT22;61549;37.044;22.128;2023-02-02T17:37:54;15.00;61.30
73322;DHT22;61549;37.044;22.128;2023-02-02T17:40:23;15.10;62.10
73322;DHT22;61549;37.044;22.128;2023-02-02T17:42:51;15.10;63.20
73322;DHT22;61549;37.044;22.128;2023-02-02T17:45:22;15.10;64.00
73322;DHT22;61549;37.044;22.128;2023-02-02T17:47:50;15.10;64.00
73322;DHT22;61549;37.044;22.128;2023-02-02T17:50:16;15.10;64.10
73322;DHT22;61549;37.044;22.128;2023-02-02T17:52:42;15.00;63.80
73322;DHT22;61549;37.044;22.128;2023-02-02T17:55:21;15.00;63.70
73322;DHT22;61549;37.044;22.128;2023-02-02T17:57:50;15.00;62.40
73322;DHT22;61549;37.044;22.128;2023-02-02T18:00:18;14.90;62.00
73322;DHT22;61549;37.044;22.128;2023-02-02T18:02:46;14.80;61.60
73322;DHT22;61549;37.044;22.128;2023-02-02T18:05:15;14.70;61.60
73322;DHT22;61549;37.044;22.128;2023-02-02T18:07:42;14.70;61.50
73322;DHT22;61549;37.044;22.128;2023-02-02T18:10:10;14.60;61.30
73322;DHT22;61549;37.044;22.128;2023-02-02T18:12:36;14.50;61.10
73322;DHT22;61549;37.044;22.128;2023-02-02T18:15:05;14.50;60.90
73322;DHT22;61549;37.044;22.128;2023-02-02T18:17:32;14.40;60.50
73322;DHT22;61549;37.044;22.128;2023-02-02T18:19:58;14.40;60.70
73322;DHT22;61549;37.044;22.128;2023-02-02T18:22:24;14.40;60.20
73322;DHT22;61549;37.044;22.128;2023-02-02T18:24:50;14.30;59.90
73322;DHT22;61549;37.044;22.128;2023-02-02T18:27:16;14.30;60.10
73322;DHT22;61549;37.044;22.128;2023-02-02T18:29:46;14.40;59.80
73322;DHT22;61549;37.044;22.128;2023-02-02T18:32:13;14.50;60.20
73322;DHT22;61549;37.044;22.128;2023-02-02T18:34:40;14.50;60.00
73322;DHT22;61549;37.044;22.128;2023-02-02T18:37:06;14.50;59.80
73322;DHT22;61549;37.044;22.128;2023-02-02T18:39:32;14.60;60.00
73322;DHT22;61549;37.044;22.128;2023-02-02T18:41:59;14.60;60.00
73322;DHT22;61549;37.044;22.128;2023-02-02T18:44:25;14.60;60.70
73322;DHT22;61549;37.044;22.128;2023-02-02T18:46:51;14.50;59.90
73322;DHT22;61549;37.044;22.128;2023-02-02T18:49:18;14.40;60.00
73322;DHT22;61549;37.044;22.128;2023-02-02T18:51:43;14.40;60.00
73322;DHT22;61549;37.044;22.128;2023-02-02T18:54:10;14.30;60.10
73322;DHT22;61549;37.044;22.128;2023-02-02T18:56:36;14.30;60.00